PAED METAR and TAF weather

Enter ICAO airport designator
Station Type Date Time Source
PAED METAR 2019/12/09 05:56 UTC NOAA

PAED 090556Z AUTO 01007KT 10SM SCT070 BKN150 02/M03 A2961 RMK AO2 SLP024 T00161027 10020 20004 57033 $


Station Type Date Time Source
PAED Decoded METAR 2019/12/09 05:56 UTC NOAA

Anchorage, Elmendorf Air Force Base, AK, United States (PAED) 61-15-11N 149-47-38W 59M
Dec 09, 2019 - 12:56 AM EST / 2019.12.09 0556 UTC
Wind: from the N (010 degrees) at 8 MPH (7 KT):0
Visibility: 10 mile(s):0
Sky conditions: mostly cloudy
Temperature: 34.9 F (1.6 C)
Windchill: 28 F (-2 C):1
Dew Point: 27.1 F (-2.7 C)
Relative Humidity: 73%
Pressure (altimeter): 29.61 in. Hg (1002 hPa)
Pressure tendency: 0.10 inches (3.3 hPa) lower than three hours ago
ob: PAED 090556Z AUTO 01007KT 10SM SCT070 BKN150 02/M03 A2961 RMK AO2 SLP024 T00161027 10020 20004 57033
cycle: 6

Station Type Date Time Source
PAED TAF 2019/12/09 03:51 UTC NOAA

TAF TAF
AMD PAED 090345Z 0903/1009 01010G15KT 8000 -RA BKN050 BKN100 WS020/16030KT 620505 520052 530259 QNH2960INS
TEMPO 0903/0908 560355
BECMG 0907/0908 05015G25KT 9999 VCSH SCT020 BKN045 WS020/16045KT 610455 520003 570309 QNH2935INS
BECMG 0922/0923 09015G20KT 4800 -RASN SCT015 BKN030 WS020/16030KT 620305 520003 530309 QNH2930INS
BECMG 1007/1008 04010KT 4800 -RASN BKN015 OVC025 WS020/16040KT 620305 520052 530259 QNH2940INS TX05/0919Z TNM02/0909Z

Example: see airport list